createdAt,value
2023-03-29T00:00:16.802Z,2.08
2023-03-29T00:03:24.873Z,2.35
2023-03-29T00:06:50.606Z,2.22
2023-03-29T00:09:58.534Z,1.73
2023-03-29T00:13:19.957Z,1.98
2023-03-29T00:16:27.334Z,2.72
2023-03-29T00:19:39.991Z,2.12
2023-03-29T00:22:44.548Z,3.62
2023-03-29T00:25:53.337Z,3.58
2023-03-29T00:29:19.146Z,3.47
2023-03-29T00:32:23.042Z,2.47
2023-03-29T00:35:34.349Z,2.70
2023-03-29T00:39:18.378Z,3.78
2023-03-29T00:42:46.901Z,2.12
2023-03-29T00:46:11.165Z,2.30
2023-03-29T00:49:18.374Z,2.12
2023-03-29T00:52:48.688Z,2.50
2023-03-29T00:56:10.153Z,2.80
2023-03-29T00:59:18.998Z,4.68
2023-03-29T01:02:27.087Z,2.92
2023-03-29T01:05:58.272Z,2.87
2023-03-29T01:09:12.698Z,2.25
2023-03-29T01:12:40.891Z,2.30
2023-03-29T01:15:58.815Z,2.17
2023-03-29T04:09:18.152Z,64.72
2023-03-29T04:12:32.140Z,76.70
2023-03-29T04:15:39.246Z,69.30
2023-03-29T04:18:42.592Z,66.80
2023-03-29T04:21:51.311Z,52.72
2023-03-29T04:24:56.986Z,64.15
2023-03-29T04:28:04.116Z,62.03
2023-03-29T04:31:27.955Z,70.07
2023-03-29T04:34:33.841Z,67.82
2023-03-29T04:37:41.888Z,57.55
2023-03-29T04:40:47.418Z,51.20
2023-03-29T04:44:14.432Z,57.20
2023-03-29T04:47:39.962Z,54.50
2023-03-29T04:50:47.528Z,52.90
2023-03-29T04:53:50.536Z,41.60
2023-03-29T04:56:53.851Z,44.83
2023-03-29T04:59:59.370Z,30.00
2023-03-29T05:03:14.648Z,25.30
2023-03-29T05:06:18.412Z,24.45
2023-03-29T05:09:28.161Z,18.58
2023-03-29T05:12:31.127Z,23.83
2023-03-29T05:15:41.235Z,31.50
2023-03-29T05:18:46.560Z,17.15
2023-03-29T05:21:51.377Z,20.20
2023-03-29T05:24:55.540Z,18.83
2023-03-29T05:28:03.608Z,13.40
2023-03-29T05:31:08.043Z,5.78
2023-03-29T05:34:13.298Z,9.02
2023-03-29T05:37:16.217Z,7.03
2023-03-29T05:40:22.581Z,8.27
2023-03-29T05:43:27.663Z,8.63
2023-03-29T05:46:36.277Z,9.48
2023-03-29T05:49:39.320Z,8.43
2023-03-29T05:52:47.937Z,7.40
2023-03-29T05:56:11.721Z,10.50
2023-03-29T05:59:17.664Z,7.78
2023-03-29T06:02:21.512Z,10.00
2023-03-29T06:05:27.732Z,9.45
2023-03-29T06:08:32.693Z,12.82
2023-03-29T06:11:37.009Z,32.17
2023-03-29T06:14:45.686Z,10.25
2023-03-29T06:17:50.776Z,9.30
2023-03-29T06:20:57.884Z,7.22
2023-03-29T06:24:05.379Z,7.05
2023-03-29T06:27:09.396Z,6.62
2023-03-29T06:30:14.676Z,6.65
2023-03-29T06:33:21.042Z,9.52
2023-03-29T06:36:25.975Z,5.87
2023-03-29T06:39:37.523Z,8.48
2023-03-29T06:42:46.512Z,6.72
2023-03-29T06:45:57.099Z,9.25
2023-03-29T06:49:09.314Z,15.10
2023-03-29T06:52:17.783Z,12.13
2023-03-29T06:55:29.508Z,25.37
2023-03-29T06:58:41.034Z,16.05
2023-03-29T07:01:47.341Z,15.25
2023-03-29T07:04:54.543Z,10.85
2023-03-29T17:37:10.404Z,18.37
2023-03-29T17:40:15.364Z,24.80
2023-03-29T17:43:57.979Z,9.27
2023-03-29T17:47:49.124Z,11.32
2023-03-29T17:51:13.830Z,42.60
2023-03-29T17:54:18.275Z,13.52
2023-03-29T17:57:43.917Z,5.57
2023-03-29T18:04:11.489Z,3.40
2023-03-29T18:07:15.515Z,8.07
2023-03-29T18:10:20.435Z,5.70
2023-03-29T18:14:04.915Z,5.80
2023-03-29T18:17:13.894Z,6.37
2023-03-29T18:20:17.442Z,9.65
2023-03-29T18:23:49.430Z,4.12
2023-03-29T18:27:32.046Z,5.57
2023-03-29T18:30:55.688Z,3.35
2023-03-29T18:34:22.535Z,7.37
2023-03-29T18:37:36.948Z,6.20
2023-03-29T18:40:40.874Z,8.90
2023-03-29T18:43:45.160Z,19.58
2023-03-29T18:46:48.173Z,10.63
2023-03-29T18:50:13.272Z,11.05
2023-03-29T18:53:37.050Z,5.05
2023-03-29T18:57:20.432Z,5.25
2023-03-29T19:00:44.188Z,4.35
2023-03-29T19:03:52.698Z,3.77
2023-03-29T19:07:36.092Z,3.72
2023-03-29T19:10:40.042Z,5.12
2023-03-29T19:14:25.326Z,5.50
2023-03-29T19:17:48.861Z,3.75
2023-03-29T19:20:53.885Z,5.65
2023-03-29T19:24:00.716Z,5.20
2023-03-29T19:27:23.541Z,4.25
2023-03-29T19:31:08.595Z,3.78
2023-03-29T19:34:51.345Z,4.68
2023-03-29T19:37:54.550Z,7.18
2023-03-29T19:40:57.292Z,7.20
2023-03-29T19:45:00.904Z,5.75
2023-03-29T19:48:04.692Z,9.45
2023-03-29T19:52:07.532Z,5.15
